createdAt,value
2022-09-03T00:00:16.416Z,14.76
2022-09-03T00:04:31.264Z,14.79
2022-09-03T00:08:39.834Z,14.75
2022-09-03T00:12:46.501Z,14.68
2022-09-03T00:17:01.161Z,14.65
2022-09-03T00:21:10.095Z,14.61
2022-09-03T00:25:17.824Z,14.60
2022-09-03T00:29:24.208Z,14.47
2022-09-03T00:33:32.401Z,14.39
2022-09-03T00:37:38.047Z,14.39
2022-09-03T00:42:09.258Z,14.39
2022-09-03T00:46:50.170Z,14.35
2022-09-03T00:50:55.280Z,14.22
2022-09-03T00:55:07.021Z,14.04
2022-09-03T00:59:22.449Z,13.98
2022-09-03T01:03:33.472Z,14.03
2022-09-03T01:08:13.766Z,14.02
2022-09-03T01:12:33.310Z,13.98
2022-09-03T01:16:53.147Z,13.98
2022-09-03T01:21:21.118Z,13.98
2022-09-03T01:25:45.784Z,14.03
2022-09-03T01:30:06.078Z,13.98
2022-09-03T01:34:11.434Z,14.00
2022-09-03T01:38:24.621Z,13.89
2022-09-03T01:42:51.545Z,13.81
2022-09-03T01:47:15.840Z,13.64
2022-09-03T01:51:31.482Z,13.59
2022-09-03T01:55:36.847Z,13.51
2022-09-03T01:59:48.779Z,13.53
2022-09-03T02:03:51.052Z,13.50
2022-09-03T02:08:06.468Z,13.35
2022-09-03T02:12:16.051Z,13.40
2022-09-03T02:16:24.387Z,13.40
2022-09-03T02:20:29.344Z,13.44
2022-09-03T02:24:31.376Z,13.47
2022-09-03T02:28:34.065Z,13.53
2022-09-03T02:32:36.357Z,13.52
2022-09-03T02:36:42.137Z,13.43
2022-09-03T02:40:45.581Z,13.40
2022-09-03T02:45:05.711Z,13.38
2022-09-03T02:49:08.361Z,13.33
2022-09-03T02:53:10.506Z,13.16
2022-09-03T02:57:16.193Z,13.01
2022-09-03T03:01:29.361Z,13.02
2022-09-03T03:05:48.256Z,13.11
2022-09-03T03:09:50.303Z,13.18
2022-09-03T03:13:52.366Z,13.27
2022-09-03T03:17:57.655Z,13.45
2022-09-03T03:21:59.763Z,13.44
2022-09-03T03:26:03.605Z,13.50
2022-09-03T03:30:10.200Z,13.43
2022-09-03T03:34:12.241Z,13.36
2022-09-03T03:38:14.264Z,13.34
2022-09-03T03:42:16.288Z,13.50
2022-09-03T03:46:18.338Z,13.71
2022-09-03T03:50:20.869Z,13.87
2022-09-03T03:54:22.912Z,13.99
2022-09-03T03:58:25.214Z,14.10
2022-09-03T04:02:27.456Z,14.23
2022-09-03T04:06:29.580Z,14.25
2022-09-03T04:10:31.607Z,14.31
2022-09-03T04:14:33.799Z,14.37
2022-09-03T04:18:36.799Z,14.46
2022-09-03T04:22:38.830Z,14.54
2022-09-03T04:26:40.872Z,14.58
2022-09-03T04:30:42.930Z,14.62
2022-09-03T04:34:49.532Z,14.65
2022-09-03T04:38:56.433Z,14.68
2022-09-03T04:43:01.412Z,14.75
2022-09-03T04:47:03.797Z,14.77
2022-09-03T04:51:16.746Z,14.79
2022-09-03T04:55:19.447Z,14.88
2022-09-03T04:59:21.651Z,15.00
2022-09-03T05:03:23.729Z,15.11
2022-09-03T05:07:28.374Z,15.22
2022-09-03T05:11:30.805Z,15.34
2022-09-03T05:15:33.303Z,15.50
2022-09-03T05:19:35.316Z,15.68
2022-09-03T05:23:42.609Z,15.82
2022-09-03T05:27:44.617Z,15.97
2022-09-03T05:31:46.599Z,16.08
2022-09-03T05:35:48.649Z,16.18
2022-09-03T05:39:51.018Z,16.29
2022-09-03T05:44:00.937Z,16.40
2022-09-03T05:48:03.252Z,16.49
2022-09-03T05:52:05.321Z,16.56
2022-09-03T05:56:12.846Z,16.60
2022-09-03T06:00:15.307Z,16.61
2022-09-03T06:04:17.476Z,16.64
2022-09-03T06:08:19.724Z,16.66
2022-09-03T06:12:21.895Z,16.73
2022-09-03T06:16:31.518Z,16.83
2022-09-03T06:20:37.191Z,16.95
2022-09-03T06:24:39.556Z,17.03
2022-09-03T06:28:44.344Z,17.07
2022-09-03T06:32:47.289Z,17.07
2022-09-03T06:36:49.559Z,17.06
2022-09-03T06:40:55.715Z,17.11
2022-09-03T06:44:57.950Z,17.40
2022-09-03T06:49:00.507Z,17.61
2022-09-03T06:53:02.553Z,17.80
2022-09-03T06:57:04.737Z,17.95
2022-09-03T07:01:09.387Z,18.05
2022-09-03T07:05:11.610Z,18.01
2022-09-03T07:09:15.466Z,17.96
2022-09-03T07:13:18.968Z,17.91
2022-09-03T07:17:21.029Z,17.91
2022-09-03T07:21:26.074Z,17.92
2022-09-03T07:25:28.436Z,17.86
2022-09-03T07:29:30.469Z,17.82
2022-09-03T07:33:34.199Z,17.81
2022-09-03T07:37:36.283Z,17.83
2022-09-03T07:41:39.101Z,17.84
2022-09-03T07:45:41.319Z,17.83
2022-09-03T07:49:43.324Z,17.85
2022-09-03T07:53:46.775Z,17.77
2022-09-03T07:57:48.820Z,17.69
2022-09-03T08:01:50.945Z,17.69
2022-09-03T08:05:53.001Z,17.71
2022-09-03T08:09:55.129Z,17.72
2022-09-03T08:14:02.963Z,17.68
2022-09-03T08:18:05.940Z,17.65
2022-09-03T08:22:08.253Z,17.66
2022-09-03T08:26:10.884Z,17.68
2022-09-03T08:30:13.028Z,17.71
2022-09-03T08:34:17.426Z,17.82
2022-09-03T08:38:19.469Z,18.01
2022-09-03T08:42:42.941Z,18.17
2022-09-03T08:46:53.445Z,18.28
2022-09-03T08:50:59.987Z,18.40
2022-09-03T08:55:08.316Z,18.67
2022-09-03T08:59:10.442Z,18.95
2022-09-03T09:03:41.383Z,19.30
2022-09-03T09:08:03.132Z,19.58
2022-09-03T09:12:42.855Z,19.62
2022-09-03T09:17:03.226Z,19.71
2022-09-03T09:21:22.008Z,19.73
2022-09-03T09:25:30.240Z,19.89
2022-09-03T09:29:35.929Z,20.09
2022-09-03T09:33:38.654Z,20.05
2022-09-03T09:37:49.512Z,19.93
2022-09-03T09:42:05.385Z,19.72
2022-09-03T09:46:13.788Z,19.60
2022-09-03T09:50:26.239Z,19.61
2022-09-03T09:54:28.884Z,19.86
2022-09-03T09:58:33.166Z,19.88
2022-09-03T10:02:38.149Z,19.90
2022-09-03T10:06:56.974Z,19.91
2022-09-03T10:10:59.124Z,19.94
2022-09-03T10:15:19.888Z,20.03
2022-09-03T10:19:27.889Z,20.38
2022-09-03T10:23:37.069Z,20.64
2022-09-03T10:27:39.069Z,20.78
2022-09-03T10:31:56.760Z,20.95
2022-09-03T10:36:10.796Z,20.98
2022-09-03T10:40:42.193Z,21.15
2022-09-03T10:44:53.894Z,21.40
2022-09-03T10:49:37.643Z,21.75
2022-09-03T10:54:01.520Z,22.08
2022-09-03T10:58:29.224Z,22.11
2022-09-03T11:02:59.301Z,22.21
2022-09-03T11:07:09.133Z,22.18
2022-09-03T11:11:21.916Z,22.03
2022-09-03T11:15:36.107Z,21.92
2022-09-03T11:19:48.179Z,21.87
2022-09-03T11:24:13.072Z,21.94
2022-09-03T11:28:49.117Z,22.05
2022-09-03T11:32:59.842Z,22.24
2022-09-03T11:37:25.955Z,22.36
2022-09-03T11:41:35.694Z,22.27
2022-09-03T11:45:38.968Z,22.33
2022-09-03T11:49:50.740Z,22.52
2022-09-03T11:54:23.854Z,22.73
2022-09-03T11:58:37.881Z,22.84
2022-09-03T12:02:52.415Z,23.00
2022-09-03T12:06:56.508Z,23.04
2022-09-03T12:11:40.516Z,23.03
2022-09-03T12:16:10.495Z,23.00
2022-09-03T12:20:17.182Z,23.11
2022-09-03T12:24:20.137Z,23.16
2022-09-03T12:28:24.927Z,23.19
2022-09-03T12:32:32.622Z,23.29
2022-09-03T12:36:40.606Z,23.25
2022-09-03T12:45:07.612Z,23.16
2022-09-03T12:49:30.844Z,23.26
2022-09-03T12:53:33.398Z,23.39
2022-09-03T12:57:45.818Z,23.54
2022-09-03T13:01:55.022Z,23.85
2022-09-03T13:06:01.698Z,23.94
2022-09-03T13:10:08.197Z,24.04
2022-09-03T13:14:13.960Z,24.21
2022-09-03T13:18:27.575Z,24.08
2022-09-03T13:23:02.166Z,23.95
2022-09-03T13:27:33.184Z,24.07
2022-09-03T13:31:41.147Z,24.13
2022-09-03T13:36:02.605Z,24.11
2022-09-03T13:40:19.981Z,24.16
2022-09-03T13:44:32.178Z,24.18
2022-09-03T13:48:59.357Z,24.04
2022-09-03T13:53:10.871Z,24.00
2022-09-03T13:57:58.342Z,24.13
2022-09-03T14:02:05.925Z,24.25
2022-09-03T14:06:32.454Z,24.18
2022-09-03T14:10:54.334Z,24.24
2022-09-03T14:15:36.582Z,24.23
2022-09-03T14:20:10.950Z,23.97
2022-09-03T14:24:29.525Z,23.94
2022-09-03T14:28:40.207Z,24.00
2022-09-03T14:33:10.548Z,24.10
2022-09-03T14:37:32.055Z,24.10
2022-09-03T14:41:56.060Z,24.26
2022-09-03T14:46:23.270Z,24.39
2022-09-03T14:50:40.462Z,24.36
2022-09-03T14:54:51.018Z,24.40
2022-09-03T14:59:34.353Z,24.44
2022-09-03T15:04:13.383Z,24.45
2022-09-03T15:08:45.379Z,24.38
2022-09-03T15:12:52.065Z,24.33
2022-09-03T15:17:26.175Z,24.30
2022-09-03T15:21:31.338Z,24.34
2022-09-03T15:25:48.253Z,24.45
2022-09-03T15:30:10.011Z,24.48
2022-09-03T15:34:30.198Z,24.63
2022-09-03T15:38:52.445Z,24.71
2022-09-03T15:43:29.499Z,24.65
2022-09-03T15:47:53.892Z,24.69
2022-09-03T15:52:08.590Z,24.68
2022-09-03T15:56:27.451Z,24.59
2022-09-03T16:00:33.673Z,24.40
2022-09-03T16:05:05.898Z,24.22
2022-09-03T16:09:32.939Z,24.22
2022-09-03T16:13:38.988Z,24.22
2022-09-03T16:18:04.519Z,24.22
2022-09-03T16:22:28.923Z,24.08
2022-09-03T16:26:54.443Z,23.81
2022-09-03T16:31:07.788Z,23.63
2022-09-03T16:35:24.030Z,23.51
2022-09-03T16:39:49.306Z,23.34
2022-09-03T16:44:25.123Z,23.15
2022-09-03T16:48:46.341Z,22.96
2022-09-03T16:53:05.620Z,22.87
2022-09-03T16:57:29.801Z,22.75
2022-09-03T17:01:59.952Z,22.57
2022-09-03T17:06:02.136Z,22.44
2022-09-03T17:10:15.262Z,22.40
2022-09-03T17:14:40.172Z,22.32
2022-09-03T17:18:51.751Z,22.21
2022-09-03T17:23:18.675Z,22.11
2022-09-03T17:27:39.020Z,22.04
2022-09-03T17:32:03.092Z,21.94
2022-09-03T17:36:08.285Z,21.81
2022-09-03T17:40:16.500Z,21.66
2022-09-03T17:44:21.607Z,21.57
2022-09-03T17:48:29.676Z,21.41
2022-09-03T17:52:52.378Z,21.19
2022-09-03T17:57:13.228Z,21.00
2022-09-03T18:01:18.207Z,20.74
2022-09-03T18:05:27.406Z,20.56
2022-09-03T18:09:44.927Z,20.46
2022-09-03T18:14:05.824Z,20.32
2022-09-03T18:18:12.275Z,20.20
2022-09-03T18:22:34.005Z,20.14
2022-09-03T18:27:00.726Z,20.05
2022-09-03T18:31:21.554Z,20.01
2022-09-03T18:35:44.999Z,19.80
2022-09-03T18:40:06.117Z,19.68
2022-09-03T18:45:20.352Z,19.75
2022-09-03T18:49:52.912Z,19.85
2022-09-03T18:54:26.128Z,19.96
2022-09-03T18:58:53.072Z,19.94
2022-09-03T19:03:21.095Z,19.96
2022-09-03T19:07:45.467Z,19.93
2022-09-03T19:12:40.199Z,19.90
2022-09-03T19:17:21.093Z,19.77
2022-09-03T19:21:53.055Z,19.65
2022-09-03T19:26:25.026Z,19.52
2022-09-03T19:30:56.180Z,19.37
2022-09-03T19:35:34.682Z,19.16
2022-09-03T19:40:37.583Z,18.87
2022-09-03T19:45:15.026Z,18.78
2022-09-03T19:50:11.808Z,18.83
2022-09-03T19:54:32.671Z,18.92
2022-09-03T19:58:57.040Z,18.99
2022-09-03T20:03:18.633Z,19.06
2022-09-03T20:07:40.046Z,19.15
2022-09-03T20:11:43.209Z,19.18
2022-09-03T20:15:59.587Z,19.18
2022-09-03T20:20:16.749Z,19.18
2022-09-03T20:24:58.820Z,19.18
2022-09-03T20:29:12.362Z,19.05
2022-09-03T20:33:39.259Z,18.84
2022-09-03T20:38:03.585Z,18.71
2022-09-03T20:42:20.833Z,18.59
2022-09-03T20:46:36.097Z,18.52
2022-09-03T20:50:48.359Z,18.44
2022-09-03T20:55:16.459Z,18.31
2022-09-03T20:59:29.561Z,18.17
2022-09-03T21:03:59.320Z,18.02
2022-09-03T21:08:29.862Z,17.92
2022-09-03T21:12:44.625Z,17.80
2022-09-03T21:17:18.854Z,17.77
2022-09-03T21:21:36.558Z,17.74
2022-09-03T21:25:44.799Z,17.77
2022-09-03T21:29:58.940Z,17.86
2022-09-03T21:34:19.321Z,17.91
2022-09-03T21:38:25.509Z,17.91
2022-09-03T21:42:50.888Z,17.96
2022-09-03T21:46:58.741Z,17.95
2022-09-03T21:51:07.005Z,17.93
2022-09-03T21:55:21.480Z,17.89
2022-09-03T21:59:42.161Z,17.86
2022-09-03T22:03:44.371Z,17.82
2022-09-03T22:08:18.315Z,17.75
2022-09-03T22:12:32.908Z,17.69
2022-09-03T22:16:34.932Z,17.63
2022-09-03T22:20:37.197Z,17.55
2022-09-03T22:24:58.840Z,17.43
2022-09-03T22:29:08.887Z,17.37
2022-09-03T22:33:29.100Z,17.24
2022-09-03T22:37:40.785Z,17.11
2022-09-03T22:42:07.761Z,17.05
2022-09-03T22:46:23.478Z,16.90
2022-09-03T22:50:35.268Z,16.65
2022-09-03T22:54:52.378Z,16.41
2022-09-03T22:59:14.393Z,16.34
2022-09-03T23:03:24.286Z,16.27
2022-09-03T23:07:46.148Z,16.17
2022-09-03T23:11:54.041Z,16.11
2022-09-03T23:16:03.974Z,16.05
2022-09-03T23:20:16.407Z,16.07
2022-09-03T23:24:27.028Z,15.99
2022-09-03T23:28:36.617Z,15.94
2022-09-03T23:32:38.766Z,15.87
2022-09-03T23:37:33.432Z,15.72
2022-09-03T23:41:59.312Z,15.55
2022-09-03T23:46:25.265Z,15.64
2022-09-03T23:50:46.151Z,15.70
2022-09-03T23:54:57.621Z,15.74
2022-09-03T23:59:29.584Z,15.76
